Glasgow, Montana
Current Conditions -  °F | °C
As of 4:53 PM on Thursday 18 Dec 2014 (Local Time) from KGGW Reporting Station
Clear Clear  
Wind Chill: 25°   Ceiling: Unl
Heat Index: 25°   Visibility: 8mi
Dew Point: 21°   Wind: 3mph
Humidity: 85%   Direction: 60°ENE
Pressure: 29.91"   Gusts: NA
Location:  48.2°N, 106.64°W
Report Text: KGGW 182353Z AUTO 06003KT 8SM CLR M04/M06 A2991 RMK AO2 SLP162 T10391061 10011 21044 53003
Loading
Personal Weather Stations






























Interactive Weather Map New forecast layout! Learn more

10-Day Weather Forecast

Advertisements
Track Severe Weather on mobile